Chagrin Township, Ohio
Current Conditions -  °F | °C
As of 10:45 PM on Tuesday 21 Oct 2014 (Local Time) from KCGF Reporting Station
Drizzle Drizzle  
Wind Chill: 43°   Ceiling: 700
Heat Index: 48°   Visibility: 4mi
Dew Point: 48°   Wind: 12mph
Humidity: 100%   Direction: 40°NE
Pressure: 30.1"   Gusts: NA
Location:  41.4475°N, 81.4018°W
Report Text: KCGF 220245Z 04010KT 4SM -DZ BR BKN007 OVC010 09/09 A3010
Loading
Personal Weather Stations






























Interactive Weather Map
Tropical Storm Tracking
New forecast layout! Learn more

10-Day Weather Forecast

Advertisements
Track Severe Weather on mobile